Time;durP1;ratioP1;P1;durP2;ratioP2;P2;SDS_P1;SDS_P2;PMS_P1;PMS_P2;Temp;Humidity;BMP_temperature;BMP_pressure;BME280_temperature;BME280_humidity;BME280_pressure;Samples;Min_cycle;Max_cycle;Signal;HPM_P1;HPM_P2
2022/08/28 00:01:20;;;;;;;13.43;3.22;;;;;;;;;;5017063;28;20677;-91
2022/08/28 00:03:46;;;;;;;9.70;2.85;;;;;;;;;;5012954;28;20488;-91
2022/08/28 00:06:12;;;;;;;8.40;3.92;;;;;;;;;;5022341;28;20462;-91
2022/08/28 00:08:38;;;;;;;11.95;3.58;;;;;;;;;;5022835;28;20030;-91
2022/08/28 00:11:04;;;;;;;13.30;3.60;;;;;;;;;;5010433;28;20029;-91
2022/08/28 00:13:30;;;;;;;13.25;3.67;;;;;;;;;;5012040;28;20041;-91
2022/08/28 00:15:59;;;;;;;13.65;3.95;;;;;;;;;;5022217;28;20413;-91
2022/08/28 00:18:26;;;;;;;14.35;3.78;;;;;;;;;;5017696;28;20053;-89
2022/08/28 00:20:52;;;;;;;10.30;3.55;;;;;;;;;;5023188;28;20047;-91
2022/08/28 00:23:18;;;;;;;12.80;3.92;;;;;;;;;;5013241;28;20547;-91
2022/08/28 00:25:44;;;;;;;10.38;3.00;;;;;;;;;;5020114;28;20036;-92
2022/08/28 00:28:11;;;;;;;16.80;3.80;;;;;;;;;;5005448;28;20037;-91
2022/08/28 00:30:42;;;;;;;12.93;3.78;;;;;;;;;;5025142;28;20488;-91
2022/08/28 00:33:13;;;;;;;11.35;3.45;;;;;;;;;;5020795;28;20041;-91
2022/08/28 00:35:40;;;;;;;10.05;3.20;;;;;;;;;;5027725;28;20025;-91
2022/08/28 00:38:06;;;;;;;20.67;3.40;;;;;;;;;;5018872;28;20032;-91
2022/08/28 00:40:33;;;;;;;14.45;3.63;;;;;;;;;;5010446;28;20063;-91
2022/08/28 00:43:00;;;;;;;11.57;3.63;;;;;;;;;;5005045;28;20033;-91
2022/08/28 00:45:27;;;;;;;7.30;3.35;;;;;;;;;;5023270;28;20336;-91
2022/08/28 00:47:53;;;;;;;8.80;3.63;;;;;;;;;;5011354;28;20064;-91
2022/08/28 00:50:20;;;;;;;10.15;2.88;;;;;;;;;;5024886;28;20079;-92
2022/08/28 00:52:48;;;;;;;13.23;2.72;;;;;;;;;;5021499;28;20025;-91
2022/08/28 00:55:16;;;;;;;18.45;3.05;;;;;;;;;;5023698;28;20086;-91
2022/08/28 00:57:47;;;;;;;10.70;4.00;;;;;;;;;;5031256;28;20155;-92
2022/08/28 01:00:16;;;;;;;16.45;3.50;;;;;;;;;;5023227;28;20033;-92
2022/08/28 01:02:42;;;;;;;11.32;3.40;;;;;;;;;;5028223;28;20029;-91
2022/08/28 01:05:09;;;;;;;17.52;3.20;;;;;;;;;;5024081;28;20029;-92
2022/08/28 01:07:38;;;;;;;8.63;2.97;;;;;;;;;;5009152;28;20480;-91
2022/08/28 01:10:10;;;;;;;13.02;3.70;;;;;;;;;;5019775;28;20116;-91
2022/08/28 01:12:36;;;;;;;14.90;4.00;;;;;;;;;;5020679;28;20102;-91
2022/08/28 01:15:08;;;;;;;12.80;3.08;;;;;;;;;;5022229;28;20168;-91
2022/08/28 01:17:34;;;;;;;15.80;3.40;;;;;;;;;;5026417;28;20183;-91
2022/08/28 01:20:04;;;;;;;11.80;3.13;;;;;;;;;;5011961;28;20146;-91
2022/08/28 01:22:30;;;;;;;12.98;2.97;;;;;;;;;;5025834;28;20070;-91
2022/08/28 01:24:57;;;;;;;26.10;4.22;;;;;;;;;;5016226;28;20028;-91
2022/08/28 01:27:23;;;;;;;11.60;3.10;;;;;;;;;;5020187;28;20039;-91
2022/08/28 01:29:49;;;;;;;17.35;3.22;;;;;;;;;;5034953;28;20030;-91
2022/08/28 01:32:34;;;;;;;11.30;2.92;;;;;;;;;;5023698;28;20091;-92
2022/08/28 01:35:01;;;;;;;20.83;3.28;;;;;;;;;;5019424;28;20040;-91
2022/08/28 01:37:27;;;;;;;17.17;3.33;;;;;;;;;;5018319;28;20028;-92
2022/08/28 01:39:53;;;;;;;7.32;2.47;;;;;;;;;;5010956;28;20127;-91
2022/08/28 01:42:19;;;;;;;12.80;2.97;;;;;;;;;;5008634;28;20182;-91
2022/08/28 01:44:46;;;;;;;10.77;3.28;;;;;;;;;;5010823;28;20499;-91
2022/08/28 01:47:12;;;;;;;18.02;3.60;;;;;;;;;;5021652;28;20037;-92
2022/08/28 01:49:38;;;;;;;11.52;3.15;;;;;;;;;;5027355;28;20476;-92
2022/08/28 01:52:04;;;;;;;15.50;3.58;;;;;;;;;;5024787;28;20056;-92
2022/08/28 01:54:30;;;;;;;15.65;3.30;;;;;;;;;;5007067;28;20026;-92
2022/08/28 01:56:56;;;;;;;16.58;3.35;;;;;;;;;;5025455;28;20508;-92
2022/08/28 01:59:22;;;;;;;11.32;3.22;;;;;;;;;;5009149;28;20047;-91
2022/08/28 02:01:48;;;;;;;14.57;2.83;;;;;;;;;;5008453;28;20039;-90
2022/08/28 02:04:15;;;;;;;11.23;2.55;;;;;;;;;;5010869;28;20048;-91
2022/08/28 02:06:41;;;;;;;8.02;2.75;;;;;;;;;;5015771;28;20033;-92
2022/08/28 02:09:07;;;;;;;7.00;2.10;;;;;;;;;;5014002;28;20041;-92
2022/08/28 02:11:34;;;;;;;16.33;4.85;;;;;;;;;;5022190;28;20423;-90
2022/08/28 02:14:00;;;;;;;11.60;2.92;;;;;;;;;;5024134;28;20036;-91
2022/08/28 02:16:26;;;;;;;6.35;2.08;;;;;;;;;;5023622;28;20417;-91
2022/08/28 02:18:52;;;;;;;13.10;2.90;;;;;;;;;;5018287;28;20056;-92
2022/08/28 02:21:18;;;;;;;8.90;2.83;;;;;;;;;;5023078;28;20127;-91
2022/08/28 02:23:45;;;;;;;12.32;3.05;;;;;;;;;;5018893;28;20028;-91
2022/08/28 02:26:12;;;;;;;9.27;3.00;;;;;;;;;;5013825;28;20021;-91
2022/08/28 02:28:38;;;;;;;12.40;2.92;;;;;;;;;;5023030;28;20341;-92
2022/08/28 02:31:08;;;;;;;7.13;2.53;;;;;;;;;;5013593;28;20033;-91
2022/08/28 02:33:36;;;;;;;10.40;2.50;;;;;;;;;;5018249;28;20032;-91
2022/08/28 02:36:02;;;;;;;13.55;4.50;;;;;;;;;;5016255;28;20049;-91
2022/08/28 02:38:28;;;;;;;7.30;2.40;;;;;;;;;;5004208;28;20029;-92
2022/08/28 02:40:54;;;;;;;10.45;2.75;;;;;;;;;;5013489;28;20037;-92
2022/08/28 02:43:20;;;;;;;12.63;4.55;;;;;;;;;;5007072;28;20038;-92
2022/08/28 02:45:47;;;;;;;13.25;2.25;;;;;;;;;;5011108;28;20037;-91
2022/08/28 02:48:13;;;;;;;14.55;2.78;;;;;;;;;;5013278;28;20038;-91
2022/08/28 02:50:40;;;;;;;16.17;2.97;;;;;;;;;;5012201;28;20040;-91
2022/08/28 02:53:06;;;;;;;13.98;3.10;;;;;;;;;;5035541;28;20034;-91
2022/08/28 02:55:32;;;;;;;11.07;2.47;;;;;;;;;;5019259;28;20036;-91
2022/08/28 02:57:58;;;;;;;9.82;2.70;;;;;;;;;;5008790;28;20055;-92
2022/08/28 03:00:25;;;;;;;10.68;2.35;;;;;;;;;;5016224;28;20037;-91
2022/08/28 03:02:51;;;;;;;10.23;2.10;;;;;;;;;;5002211;28;20029;-91
2022/08/28 03:05:19;;;;;;;16.02;2.97;;;;;;;;;;5014938;28;20060;-92
2022/08/28 03:07:45;;;;;;;10.07;2.72;;;;;;;;;;5026923;28;20517;-92
2022/08/28 03:10:12;;;;;;;9.18;2.05;;;;;;;;;;5010986;28;20065;-89
2022/08/28 03:12:38;;;;;;;13.63;2.63;;;;;;;;;;5009675;28;20030;-91
2022/08/28 03:15:08;;;;;;;11.15;2.10;;;;;;;;;;5018782;28;20030;-91
2022/08/28 03:17:35;;;;;;;11.23;2.00;;;;;;;;;;5026949;28;20064;-91
2022/08/28 03:20:02;;;;;;;11.00;2.22;;;;;;;;;;5026810;28;20496;-90
2022/08/28 03:25:12;;;;;;;11.82;2.45;;;;;;;;;;5027383;28;20075;-91
2022/08/28 03:27:38;;;;;;;9.10;2.85;;;;;;;;;;5008599;28;20659;-91
2022/08/28 03:30:06;;;;;;;9.38;2.10;;;;;;;;;;5020473;28;20032;-91
2022/08/28 03:32:32;;;;;;;14.27;2.33;;;;;;;;;;5023989;28;20044;-90
2022/08/28 03:34:58;;;;;;;6.75;2.15;;;;;;;;;;5006488;28;20405;-91
2022/08/28 03:37:24;;;;;;;21.10;2.80;;;;;;;;;;5005716;28;20484;-91
2022/08/28 03:39:50;;;;;;;9.45;2.75;;;;;;;;;;5010003;28;20119;-91
2022/08/28 03:42:17;;;;;;;9.98;2.40;;;;;;;;;;5008595;28;20029;-91
2022/08/28 03:44:43;;;;;;;12.75;2.38;;;;;;;;;;5013799;28;20037;-91
2022/08/28 03:47:09;;;;;;;10.95;2.33;;;;;;;;;;5002775;28;20037;-91
2022/08/28 03:49:35;;;;;;;12.15;2.75;;;;;;;;;;5002097;28;20060;-91
2022/08/28 03:52:01;;;;;;;19.02;2.83;;;;;;;;;;5020566;28;20021;-91
2022/08/28 03:54:28;;;;;;;19.80;2.63;;;;;;;;;;5005513;28;20131;-92
2022/08/28 03:56:54;;;;;;;16.33;2.63;;;;;;;;;;5015244;28;20665;-92
2022/08/28 03:59:20;;;;;;;8.18;2.63;;;;;;;;;;5006403;28;20033;-91
2022/08/28 04:01:53;;;;;;;9.70;2.22;;;;;;;;;;5008368;28;20036;-90
2022/08/28 04:04:19;;;;;;;13.20;2.35;;;;;;;;;;5013550;28;20082;-91
2022/08/28 04:06:45;;;;;;;7.72;1.80;;;;;;;;;;5003812;28;20416;-92
2022/08/28 04:09:11;;;;;;;15.57;2.28;;;;;;;;;;5016697;28;20051;-92
2022/08/28 04:11:41;;;;;;;14.68;2.72;;;;;;;;;;5010155;28;20513;-91
2022/08/28 04:14:07;;;;;;;10.23;2.45;;;;;;;;;;5022743;28;20083;-91
2022/08/28 04:16:40;;;;;;;10.20;2.60;;;;;;;;;;5023291;28;20266;-91
2022/08/28 04:19:06;;;;;;;9.48;2.25;;;;;;;;;;5007945;28;20034;-91
2022/08/28 04:21:32;;;;;;;11.82;2.42;;;;;;;;;;5022000;28;20033;-91
2022/08/28 04:23:58;;;;;;;5.63;1.95;;;;;;;;;;5011569;28;20018;-91
2022/08/28 04:26:25;;;;;;;9.13;2.50;;;;;;;;;;5004162;28;20041;-91
2022/08/28 04:28:51;;;;;;;5.40;2.40;;;;;;;;;;5020115;28;20029;-92
2022/08/28 04:31:18;;;;;;;9.63;2.15;;;;;;;;;;5025471;28;20056;-91
2022/08/28 04:33:44;;;;;;;14.43;2.58;;;;;;;;;;5028479;28;20063;-91
2022/08/28 04:36:12;;;;;;;7.60;2.50;;;;;;;;;;5013682;28;20099;-91
2022/08/28 04:38:38;;;;;;;10.20;2.33;;;;;;;;;;5020262;28;20036;-91
2022/08/28 04:41:05;;;;;;;11.45;2.35;;;;;;;;;;5023389;28;20108;-91
2022/08/28 04:43:31;;;;;;;9.07;2.63;;;;;;;;;;5021064;28;20025;-92
2022/08/28 04:45:57;;;;;;;10.25;3.95;;;;;;;;;;5013159;28;20110;-92
2022/08/28 04:48:24;;;;;;;7.80;2.30;;;;;;;;;;5023878;28;20489;-92
2022/08/28 04:50:50;;;;;;;16.83;2.60;;;;;;;;;;5014972;28;20017;-91
2022/08/28 04:53:17;;;;;;;13.88;2.63;;;;;;;;;;5011797;28;20053;-91
2022/08/28 04:55:45;;;;;;;8.65;2.20;;;;;;;;;;5024848;28;20396;-91
2022/08/28 04:58:11;;;;;;;14.18;3.08;;;;;;;;;;4992801;28;20465;-91
2022/08/28 05:00:42;;;;;;;10.90;2.47;;;;;;;;;;4995978;28;20026;-91
2022/08/28 05:03:10;;;;;;;11.43;2.45;;;;;;;;;;5000968;28;20037;-91
2022/08/28 05:05:40;;;;;;;12.52;2.20;;;;;;;;;;4993880;28;20145;-89
2022/08/28 05:08:06;;;;;;;16.38;2.45;;;;;;;;;;5002365;28;20026;-91
2022/08/28 05:10:34;;;;;;;5.55;2.05;;;;;;;;;;4993648;28;20051;-91
2022/08/28 05:13:00;;;;;;;9.90;1.85;;;;;;;;;;4992585;28;20500;-91
2022/08/28 05:15:27;;;;;;;8.50;2.25;;;;;;;;;;4986086;28;20025;-91
2022/08/28 05:17:53;;;;;;;10.10;2.08;;;;;;;;;;5001398;28;20860;-92
2022/08/28 05:20:19;;;;;;;12.52;2.17;;;;;;;;;;5003351;28;20496;-91
2022/08/28 05:22:46;;;;;;;8.90;1.85;;;;;;;;;;4988198;28;20040;-91
2022/08/28 05:25:13;;;;;;;16.38;3.50;;;;;;;;;;4987775;28;20541;-91
2022/08/28 05:27:40;;;;;;;10.02;2.42;;;;;;;;;;5001592;28;20049;-91
2022/08/28 05:30:06;;;;;;;12.52;2.05;;;;;;;;;;5008113;28;20049;-92
2022/08/28 05:32:33;;;;;;;11.07;1.90;;;;;;;;;;5004101;28;20036;-92
2022/08/28 05:34:59;;;;;;;9.55;1.90;;;;;;;;;;5015858;28;20057;-91
2022/08/28 05:37:25;;;;;;;8.52;2.72;;;;;;;;;;4985723;28;20464;-91
2022/08/28 05:39:51;;;;;;;7.40;2.00;;;;;;;;;;4993804;28;20417;-92
2022/08/28 05:42:17;;;;;;;8.43;1.85;;;;;;;;;;5006867;28;20784;-91
2022/08/28 05:44:43;;;;;;;10.68;2.25;;;;;;;;;;4988245;28;20045;-91
2022/08/28 05:47:11;;;;;;;8.93;2.03;;;;;;;;;;4989667;28;20129;-91
2022/08/28 05:49:37;;;;;;;12.77;2.30;;;;;;;;;;4996371;28;20457;-91
2022/08/28 05:52:03;;;;;;;8.93;2.70;;;;;;;;;;5007798;28;20038;-91
2022/08/28 05:54:29;;;;;;;10.82;1.98;;;;;;;;;;4995173;28;20026;-91
2022/08/28 05:56:55;;;;;;;4.38;1.42;;;;;;;;;;5005987;28;20041;-91
2022/08/28 05:59:21;;;;;;;19.13;2.33;;;;;;;;;;5021172;28;20086;-91
2022/08/28 06:01:48;;;;;;;6.63;1.60;;;;;;;;;;5006793;28;20045;-91
2022/08/28 06:04:22;;;;;;;9.85;2.22;;;;;;;;;;5021082;28;20029;-91
2022/08/28 06:06:48;;;;;;;6.90;1.35;;;;;;;;;;5013265;28;20061;-91
2022/08/28 06:09:16;;;;;;;6.80;1.55;;;;;;;;;;5003343;28;20400;-91
2022/08/28 06:11:43;;;;;;;5.35;1.40;;;;;;;;;;5026142;28;20029;-92
2022/08/28 06:14:10;;;;;;;5.85;1.42;;;;;;;;;;5011495;28;20080;-91
2022/08/28 06:16:40;;;;;;;5.97;1.65;;;;;;;;;;5020406;28;20120;-90
2022/08/28 06:19:08;;;;;;;13.02;2.60;;;;;;;;;;5024546;28;20025;-91
2022/08/28 06:21:34;;;;;;;15.60;2.38;;;;;;;;;;5009152;28;20363;-91
2022/08/28 06:24:00;;;;;;;9.30;1.80;;;;;;;;;;5015340;28;20116;-92
2022/08/28 06:26:26;;;;;;;8.05;1.92;;;;;;;;;;5020927;28;20507;-92
2022/08/28 06:28:53;;;;;;;5.25;1.42;;;;;;;;;;5017733;28;20476;-91
2022/08/28 06:31:19;;;;;;;6.07;1.85;;;;;;;;;;5012439;28;20147;-91
2022/08/28 06:33:45;;;;;;;7.82;2.10;;;;;;;;;;5011777;28;20143;-92
2022/08/28 06:36:11;;;;;;;5.60;1.60;;;;;;;;;;5006129;28;20164;-91
2022/08/28 06:38:37;;;;;;;6.70;1.90;;;;;;;;;;5010349;28;20124;-91
2022/08/28 06:41:08;;;;;;;5.45;2.20;;;;;;;;;;5026932;28;20037;-92
2022/08/28 06:43:34;;;;;;;5.50;1.77;;;;;;;;;;5030187;28;20539;-90
2022/08/28 06:46:00;;;;;;;11.68;1.50;;;;;;;;;;5012249;28;20084;-91
2022/08/28 06:48:27;;;;;;;14.68;2.10;;;;;;;;;;5004933;28;20276;-91
2022/08/28 06:50:54;;;;;;;8.23;1.95;;;;;;;;;;5023885;28;20377;-91
2022/08/28 06:53:29;;;;;;;6.18;1.65;;;;;;;;;;5017856;28;20029;-91
2022/08/28 06:55:57;;;;;;;9.73;1.63;;;;;;;;;;5022226;28;20508;-92
2022/08/28 06:58:23;;;;;;;6.57;1.95;;;;;;;;;;5030374;28;20110;-92
2022/08/28 07:00:49;;;;;;;10.27;1.92;;;;;;;;;;5013974;28;20124;-91
2022/08/28 07:03:15;;;;;;;8.95;2.33;;;;;;;;;;5010101;28;20072;-91
2022/08/28 07:05:41;;;;;;;11.57;2.15;;;;;;;;;;5010711;28;20035;-91
2022/08/28 07:08:07;;;;;;;8.60;1.77;;;;;;;;;;5009505;28;20056;-92
2022/08/28 07:10:33;;;;;;;14.88;1.80;;;;;;;;;;5023223;28;20030;-91
2022/08/28 07:13:01;;;;;;;4.65;1.88;;;;;;;;;;5010475;28;20111;-92
2022/08/28 07:15:27;;;;;;;8.50;1.80;;;;;;;;;;5008178;28;20029;-91
2022/08/28 07:17:55;;;;;;;5.72;1.88;;;;;;;;;;5014869;28;20033;-92
2022/08/28 07:20:21;;;;;;;7.30;2.25;;;;;;;;;;5011999;28;20392;-92
2022/08/28 07:22:52;;;;;;;4.43;1.75;;;;;;;;;;5008134;28;20037;-92
2022/08/28 07:25:18;;;;;;;6.38;2.13;;;;;;;;;;5023274;28;20026;-91
2022/08/28 07:27:44;;;;;;;8.50;2.28;;;;;;;;;;5019053;28;20034;-91
2022/08/28 07:30:11;;;;;;;7.70;1.50;;;;;;;;;;5006471;28;20040;-91
2022/08/28 07:32:38;;;;;;;10.35;2.10;;;;;;;;;;5009710;28;20033;-91
2022/08/28 07:35:04;;;;;;;14.27;2.30;;;;;;;;;;5003781;28;20044;-92
2022/08/28 07:37:30;;;;;;;4.75;2.20;;;;;;;;;;5003120;28;20495;-91
2022/08/28 07:39:56;;;;;;;6.65;1.75;;;;;;;;;;5009319;28;20065;-92
2022/08/28 07:45:07;;;;;;;4.82;2.17;;;;;;;;;;5023802;28;20311;-91
2022/08/28 07:47:33;;;;;;;4.70;1.90;;;;;;;;;;5011592;28;20650;-92
2022/08/28 07:49:59;;;;;;;8.02;1.90;;;;;;;;;;5014967;28;20306;-90
2022/08/28 07:52:28;;;;;;;4.85;2.08;;;;;;;;;;5003332;28;20029;-91
2022/08/28 07:54:55;;;;;;;7.18;1.80;;;;;;;;;;5003598;28;20044;-92
2022/08/28 07:57:21;;;;;;;9.75;2.10;;;;;;;;;;5029579;28;20120;-91
2022/08/28 07:59:48;;;;;;;5.18;1.70;;;;;;;;;;5008314;28;20117;-91
2022/08/28 08:02:15;;;;;;;5.15;1.70;;;;;;;;;;5024363;28;20025;-91
2022/08/28 08:04:41;;;;;;;7.35;1.73;;;;;;;;;;5012901;28;20535;-91
2022/08/28 08:07:08;;;;;;;6.40;2.58;;;;;;;;;;5009326;28;20038;-92
2022/08/28 08:09:38;;;;;;;11.70;2.20;;;;;;;;;;5033475;28;20434;-92
2022/08/28 08:12:04;;;;;;;5.50;2.00;;;;;;;;;;5021764;28;20029;-92
2022/08/28 08:14:31;;;;;;;4.88;1.98;;;;;;;;;;5014149;28;20033;-92
2022/08/28 08:17:00;;;;;;;5.47;2.33;;;;;;;;;;5018404;28;20020;-92
2022/08/28 08:19:26;;;;;;;7.80;2.42;;;;;;;;;;5022748;28;20475;-92
2022/08/28 08:21:53;;;;;;;20.45;2.50;;;;;;;;;;5019390;28;20579;-92
2022/08/28 08:24:19;;;;;;;7.28;2.00;;;;;;;;;;5020872;28;20092;-91
2022/08/28 08:26:46;;;;;;;10.73;1.90;;;;;;;;;;5026897;28;20590;-91
2022/08/28 08:29:12;;;;;;;5.60;2.00;;;;;;;;;;5026807;28;20039;-91
2022/08/28 08:31:39;;;;;;;8.52;2.38;;;;;;;;;;5026985;28;20041;-91
2022/08/28 08:34:05;;;;;;;13.32;2.55;;;;;;;;;;5028728;28;20028;-92
2022/08/28 08:36:33;;;;;;;5.78;2.00;;;;;;;;;;5019837;28;20786;-91
2022/08/28 08:38:59;;;;;;;7.20;2.00;;;;;;;;;;5023691;28;20501;-91
2022/08/28 08:41:25;;;;;;;13.68;2.75;;;;;;;;;;5024652;28;20041;-91
2022/08/28 08:43:51;;;;;;;6.82;2.38;;;;;;;;;;5017121;28;20033;-91
2022/08/28 08:46:19;;;;;;;8.25;2.17;;;;;;;;;;5022616;28;20397;-91
2022/08/28 08:48:45;;;;;;;5.20;2.00;;;;;;;;;;5026950;28;20034;-91
2022/08/28 08:51:20;;;;;;;10.18;2.38;;;;;;;;;;5004441;28;20651;-91
2022/08/28 08:54:25;;;;;;;6.80;2.53;;;;;;;;;;5025324;28;20132;-91
2022/08/28 08:56:53;;;;;;;7.10;2.60;;;;;;;;;;4969476;28;20042;-89
2022/08/28 08:59:29;;;;;;;10.88;2.83;;;;;;;;;;5016157;28;20045;-91
2022/08/28 09:02:07;;;;;;;7.95;1.95;;;;;;;;;;5003448;28;20029;-92
2022/08/28 09:04:46;;;;;;;6.78;3.17;;;;;;;;;;5008898;28;20037;-92
2022/08/28 09:07:19;;;;;;;4.25;1.92;;;;;;;;;;5000784;28;20390;-92
2022/08/28 09:09:49;;;;;;;4.57;2.00;;;;;;;;;;5008913;28;20417;-93
2022/08/28 09:12:17;;;;;;;10.80;2.28;;;;;;;;;;4999812;28;20060;-92
2022/08/28 09:15:07;;;;;;;5.45;2.28;;;;;;;;;;5007123;28;20029;-92
2022/08/28 09:17:48;;;;;;;6.43;1.90;;;;;;;;;;5004794;28;20058;-93
2022/08/28 09:20:28;;;;;;;8.35;1.98;;;;;;;;;;5017738;28;20475;-92
2022/08/28 09:22:55;;;;;;;5.43;2.28;;;;;;;;;;5016774;28;20079;-92
2022/08/28 09:25:40;;;;;;;11.18;2.20;;;;;;;;;;5022545;28;20022;-93
2022/08/28 09:28:08;;;;;;;3.20;2.00;;;;;;;;;;4999252;28;20063;-93
2022/08/28 09:30:34;;;;;;;4.47;2.15;;;;;;;;;;5025824;28;20121;-92
2022/08/28 09:33:00;;;;;;;14.43;2.55;;;;;;;;;;5003151;28;20083;-93
2022/08/28 09:35:28;;;;;;;11.10;2.30;;;;;;;;;;5009819;28;20462;-92
2022/08/28 09:37:55;;;;;;;6.18;1.88;;;;;;;;;;5004259;28;20129;-92
2022/08/28 09:40:22;;;;;;;6.38;2.20;;;;;;;;;;4994600;28;20369;-93
2022/08/28 09:45:51;;;;;;;6.97;2.55;;;;;;;;;;5020683;28;20047;-93
2022/08/28 09:48:20;;;;;;;5.25;2.20;;;;;;;;;;5011741;28;20040;-93
2022/08/28 09:50:56;;;;;;;8.38;2.25;;;;;;;;;;5005202;28;20397;-92
2022/08/28 09:53:27;;;;;;;8.68;2.60;;;;;;;;;;5014492;28;20112;-93
2022/08/28 09:55:53;;;;;;;8.68;2.45;;;;;;;;;;5003002;28;20022;-93
2022/08/28 09:58:20;;;;;;;4.28;1.90;;;;;;;;;;5018755;28;20078;-93
2022/08/28 10:00:51;;;;;;;4.18;1.90;;;;;;;;;;5019179;28;20457;-92
2022/08/28 10:03:21;;;;;;;4.47;1.80;;;;;;;;;;5021517;28;20400;-93
2022/08/28 10:05:54;;;;;;;6.70;2.65;;;;;;;;;;5016723;28;20041;-92
2022/08/28 10:08:43;;;;;;;5.80;2.50;;;;;;;;;;5025137;28;20091;-93
2022/08/28 10:11:22;;;;;;;7.40;2.50;;;;;;;;;;5004033;28;20033;-93
2022/08/28 10:14:02;;;;;;;6.03;2.20;;;;;;;;;;5022959;28;20041;-94
2022/08/28 10:16:33;;;;;;;8.30;2.30;;;;;;;;;;5022393;28;20480;-93
2022/08/28 10:19:06;;;;;;;4.13;1.90;;;;;;;;;;5019624;28;20033;-93
2022/08/28 10:21:49;;;;;;;7.40;2.55;;;;;;;;;;5019873;28;20186;-94
2022/08/28 10:24:20;;;;;;;4.03;1.98;;;;;;;;;;5025137;28;20387;-94
2022/08/28 10:27:04;;;;;;;9.25;2.05;;;;;;;;;;5038251;28;20060;-94
2022/08/28 10:29:38;;;;;;;10.20;2.55;;;;;;;;;;5030272;28;20029;-94
2022/08/28 10:32:07;;;;;;;7.63;2.35;;;;;;;;;;5025225;28;20144;-93
2022/08/28 10:34:36;;;;;;;6.30;2.10;;;;;;;;;;5023157;28;20041;-94
2022/08/28 10:37:08;;;;;;;5.03;2.00;;;;;;;;;;5015265;28;20566;-93
2022/08/28 10:39:56;;;;;;;5.75;2.40;;;;;;;;;;5019807;28;20168;-93
2022/08/28 10:42:33;;;;;;;9.07;2.63;;;;;;;;;;5016786;28;20106;-92
2022/08/28 10:45:04;;;;;;;16.02;2.00;;;;;;;;;;5027033;28;20044;-93
2022/08/28 10:47:31;;;;;;;4.47;1.67;;;;;;;;;;5022862;28;20033;-93
2022/08/28 10:50:14;;;;;;;4.90;1.90;;;;;;;;;;5011712;28;20143;-93
2022/08/28 10:52:44;;;;;;;5.90;2.28;;;;;;;;;;5020041;28;20063;-93
2022/08/28 10:55:13;;;;;;;4.85;2.42;;;;;;;;;;5023157;28;20419;-93
2022/08/28 10:57:51;;;;;;;8.68;2.10;;;;;;;;;;5027550;28;20049;-93
2022/08/28 11:00:19;;;;;;;7.88;1.75;;;;;;;;;;5026308;28;20484;-92
2022/08/28 11:02:47;;;;;;;8.13;1.88;;;;;;;;;;5019155;28;20087;-93
2022/08/28 11:05:13;;;;;;;5.28;2.50;;;;;;;;;;5022939;28;20052;-92
2022/08/28 11:07:51;;;;;;;7.93;2.55;;;;;;;;;;5025717;28;20078;-93
2022/08/28 11:10:41;;;;;;;3.75;1.60;;;;;;;;;;5020261;28;20044;-93
2022/08/28 11:13:08;;;;;;;2.80;1.88;;;;;;;;;;5024031;28;20136;-93
2022/08/28 11:15:35;;;;;;;6.70;2.42;;;;;;;;;;5019647;28;20521;-92
2022/08/28 11:18:04;;;;;;;9.60;2.40;;;;;;;;;;5023694;28;20041;-93
2022/08/28 11:20:31;;;;;;;5.75;2.30;;;;;;;;;;5040103;28;20133;-92
2022/08/28 11:23:17;;;;;;;4.95;2.15;;;;;;;;;;5006139;28;20044;-93
2022/08/28 11:25:47;;;;;;;13.10;2.75;;;;;;;;;;5023055;28;20037;-93
2022/08/28 11:28:16;;;;;;;6.43;2.10;;;;;;;;;;5017482;28;20502;-93
2022/08/28 11:30:45;;;;;;;5.93;2.80;;;;;;;;;;5019957;28;20486;-92
2022/08/28 11:33:30;;;;;;;3.38;1.90;;;;;;;;;;5023816;28;20025;-93
2022/08/28 11:35:56;;;;;;;7.47;2.87;;;;;;;;;;5018152;28;20423;-93
2022/08/28 11:38:41;;;;;;;11.65;2.65;;;;;;;;;;5017971;28;20495;-93
2022/08/28 11:41:23;;;;;;;3.72;2.08;;;;;;;;;;5026174;28;20037;-93
2022/08/28 11:44:11;;;;;;;4.40;2.17;;;;;;;;;;5027174;28;20083;-93
2022/08/28 11:46:39;;;;;;;3.65;1.95;;;;;;;;;;5019771;28;20029;-93
2022/08/28 11:49:26;;;;;;;5.75;2.38;;;;;;;;;;5025640;28;20472;-93
2022/08/28 11:52:11;;;;;;;4.30;2.33;;;;;;;;;;5024276;28;20025;-93
2022/08/28 11:54:37;;;;;;;3.95;2.17;;;;;;;;;;5018752;28;20022;-93
2022/08/28 11:57:03;;;;;;;2.83;2.10;;;;;;;;;;5026183;28;20082;-93
2022/08/28 11:59:47;;;;;;;9.95;2.42;;;;;;;;;;5015355;28;20357;-93
2022/08/28 12:02:46;;;;;;;5.78;2.35;;;;;;;;;;5021741;28;20717;-93
2022/08/28 12:05:32;;;;;;;4.68;1.90;;;;;;;;;;4971419;28;20037;-93
2022/08/28 12:07:59;;;;;;;5.80;1.83;;;;;;;;;;5020729;28;20121;-93
2022/08/28 12:10:25;;;;;;;6.28;1.90;;;;;;;;;;5021323;28;20021;-92
2022/08/28 12:12:59;;;;;;;6.32;2.10;;;;;;;;;;5022153;28;20028;-93
2022/08/28 12:15:28;;;;;;;5.72;3.38;;;;;;;;;;5023185;28;20484;-93
2022/08/28 12:18:03;;;;;;;10.30;2.20;;;;;;;;;;5028683;28;20047;-92
2022/08/28 12:20:45;;;;;;;6.43;2.10;;;;;;;;;;5019701;28;20531;-93
2022/08/28 12:23:23;;;;;;;5.72;2.33;;;;;;;;;;5022284;28;20388;-94
2022/08/28 12:26:08;;;;;;;9.15;1.92;;;;;;;;;;5019610;28;20030;-92
2022/08/28 12:28:43;;;;;;;3.73;2.10;;;;;;;;;;5017740;28;20518;-93
2022/08/28 12:32:10;;;;;;;5.13;2.45;;;;;;;;;;5024733;28;20058;-93
2022/08/28 12:34:19;;;;;;;9.40;2.20;;;;;;;;;;5041018;28;20034;-93
2022/08/28 12:36:45;;;;;;;4.33;1.73;;;;;;;;;;5026769;28;20021;-93
2022/08/28 12:39:17;;;;;;;4.70;2.25;;;;;;;;;;5008025;28;20057;-93
2022/08/28 12:41:46;;;;;;;6.13;2.17;;;;;;;;;;5021249;28;20037;-93
2022/08/28 12:44:14;;;;;;;3.92;1.90;;;;;;;;;;5025051;28;20041;-94
2022/08/28 12:46:42;;;;;;;5.82;1.65;;;;;;;;;;5010556;28;20036;-93
2022/08/28 12:49:28;;;;;;;5.47;1.98;;;;;;;;;;5021361;28;20074;-93
2022/08/28 12:52:18;;;;;;;6.40;2.00;;;;;;;;;;5026038;28;20021;-93
2022/08/28 12:54:44;;;;;;;5.80;1.63;;;;;;;;;;5032653;28;20037;-93
2022/08/28 12:57:12;;;;;;;6.05;1.58;;;;;;;;;;5024951;28;20408;-95
2022/08/28 12:59:40;;;;;;;5.32;1.75;;;;;;;;;;5020361;28;20049;-92
2022/08/28 13:02:08;;;;;;;9.18;2.75;;;;;;;;;;5018094;28;20669;-93
2022/08/28 13:04:40;;;;;;;8.27;2.40;;;;;;;;;;5017845;28;20465;-93
2022/08/28 13:07:11;;;;;;;2.72;1.65;;;;;;;;;;5020457;28;20124;-93
2022/08/28 13:09:38;;;;;;;4.50;1.70;;;;;;;;;;5023868;28;20056;-93
2022/08/28 13:12:04;;;;;;;5.95;1.58;;;;;;;;;;5023495;28;20037;-93
2022/08/28 13:14:46;;;;;;;4.07;1.40;;;;;;;;;;5006537;28;20123;-93
2022/08/28 13:17:12;;;;;;;6.22;1.33;;;;;;;;;;5020688;28;20435;-92
2022/08/28 13:19:38;;;;;;;3.30;1.45;;;;;;;;;;5015942;28;20067;-92
2022/08/28 13:22:27;;;;;;;2.35;1.30;;;;;;;;;;5013483;28;20041;-92
2022/08/28 13:24:58;;;;;;;6.47;1.48;;;;;;;;;;5026963;28;20523;-92
2022/08/28 13:27:25;;;;;;;5.93;1.42;;;;;;;;;;5019623;28;20124;-93
2022/08/28 13:29:57;;;;;;;4.45;1.40;;;;;;;;;;5017039;28;20542;-93
2022/08/28 13:32:23;;;;;;;4.25;1.40;;;;;;;;;;5023953;28;20028;-92
2022/08/28 13:35:06;;;;;;;5.10;2.53;;;;;;;;;;5010866;28;20036;-93
2022/08/28 13:37:42;;;;;;;8.40;1.63;;;;;;;;;;5017062;28;20035;-92
2022/08/28 13:40:09;;;;;;;5.85;1.75;;;;;;;;;;5022424;28;20041;-93
2022/08/28 13:42:35;;;;;;;5.38;1.80;;;;;;;;;;5024430;28;20972;-93
2022/08/28 13:45:01;;;;;;;7.38;1.50;;;;;;;;;;5026747;28;20485;-93
2022/08/28 13:47:27;;;;;;;7.38;2.25;;;;;;;;;;5024082;28;20477;-91
2022/08/28 13:49:53;;;;;;;7.55;1.65;;;;;;;;;;5017364;28;20037;-93
2022/08/28 13:52:19;;;;;;;10.98;4.28;;;;;;;;;;5014840;28;20033;-93
2022/08/28 13:54:46;;;;;;;10.98;4.13;;;;;;;;;;5014721;28;20081;-92
2022/08/28 13:57:12;;;;;;;10.13;4.00;;;;;;;;;;5010555;28;20025;-93
2022/08/28 13:59:38;;;;;;;7.80;2.70;;;;;;;;;;5004528;28;20058;-93
2022/08/28 14:04:52;;;;;;;6.18;2.22;;;;;;;;;;5019790;28;20102;-93
2022/08/28 14:07:18;;;;;;;3.78;1.52;;;;;;;;;;4995684;28;20036;-93
2022/08/28 14:09:44;;;;;;;4.80;1.50;;;;;;;;;;4994400;28;20519;-92
2022/08/28 14:12:11;;;;;;;8.60;1.77;;;;;;;;;;4993016;28;20499;-93
2022/08/28 14:14:37;;;;;;;6.18;1.85;;;;;;;;;;5006500;28;20025;-93
2022/08/28 14:17:04;;;;;;;4.68;1.92;;;;;;;;;;4987639;28;20401;-93
2022/08/28 14:19:30;;;;;;;8.63;1.95;;;;;;;;;;5004882;28;20052;-93
2022/08/28 14:21:56;;;;;;;7.47;1.67;;;;;;;;;;5000551;28;20056;-93
2022/08/28 14:24:22;;;;;;;7.00;1.52;;;;;;;;;;5002108;28;20429;-93
2022/08/28 14:26:49;;;;;;;2.92;1.30;;;;;;;;;;4985111;28;20029;-93
2022/08/28 14:29:16;;;;;;;5.28;1.52;;;;;;;;;;4992569;28;20037;-93
2022/08/28 14:31:42;;;;;;;5.10;1.30;;;;;;;;;;4999145;28;20037;-93
2022/08/28 14:34:09;;;;;;;9.35;2.10;;;;;;;;;;4995518;28;20710;-93
2022/08/28 14:36:35;;;;;;;6.70;2.33;;;;;;;;;;4998583;28;20038;-93
2022/08/28 14:39:03;;;;;;;5.70;1.25;;;;;;;;;;4993724;28;20037;-93
2022/08/28 14:41:29;;;;;;;5.68;1.52;;;;;;;;;;4999585;28;20057;-93
2022/08/28 14:43:55;;;;;;;5.30;1.75;;;;;;;;;;4992789;28;20060;-93
2022/08/28 14:46:29;;;;;;;5.32;1.45;;;;;;;;;;5002981;28;20244;-93
2022/08/28 14:48:56;;;;;;;7.35;1.55;;;;;;;;;;5004599;28;20386;-93
2022/08/28 14:51:22;;;;;;;8.30;1.70;;;;;;;;;;5015891;28;20492;-93
2022/08/28 14:53:48;;;;;;;8.65;2.67;;;;;;;;;;4995494;28;20024;-93
2022/08/28 14:56:15;;;;;;;6.20;1.70;;;;;;;;;;5004764;28;20038;-93
2022/08/28 14:58:41;;;;;;;5.40;1.73;;;;;;;;;;5015978;28;20044;-93
2022/08/28 15:01:07;;;;;;;7.05;1.60;;;;;;;;;;5011146;28;20033;-93